Time;durP1;ratioP1;P1;durP2;ratioP2;P2;SDS_P1;SDS_P2;PMS_P1;PMS_P2;Temp;Humidity;BMP_temperature;BMP_pressure;BME280_temperature;BME280_humidity;BME280_pressure;Samples;Min_cycle;Max_cycle;Signal;HPM_P1;HPM_P2
2023/05/24 00:01:55;;;;;;;11.97;4.37;;;;;;;;;;4958044;28;20864;-84
2023/05/24 00:04:21;;;;;;;12.83;4.03;;;;;;;;;;4955378;28;20222;-83
2023/05/24 00:06:47;;;;;;;15.43;4.63;;;;;;;;;;4961508;28;20216;-85
2023/05/24 00:09:15;;;;;;;12.23;4.27;;;;;;;;;;4978075;28;20217;-83
2023/05/24 00:11:40;;;;;;;15.23;4.97;;;;;;;;;;4976710;28;20218;-82
2023/05/24 00:14:06;;;;;;;13.27;4.73;;;;;;;;;;4969463;28;20715;-85
2023/05/24 00:16:32;;;;;;;10.50;4.30;;;;;;;;;;4950527;28;20238;-85
2023/05/24 00:19:00;;;;;;;13.17;4.07;;;;;;;;;;4958186;28;20232;-81
2023/05/24 01:52:18;;;;;;;12.53;5.67;;;;;;;;;;4987376;28;20248;-83
2023/05/24 01:54:49;;;;;;;11.47;4.80;;;;;;;;;;4992116;28;20228;-85
2023/05/24 01:57:15;;;;;;;12.37;4.93;;;;;;;;;;4937979;28;20256;-85
2023/05/24 01:59:43;;;;;;;13.20;5.30;;;;;;;;;;4991347;28;20761;-83
2023/05/24 02:02:14;;;;;;;12.70;5.27;;;;;;;;;;5004532;28;20225;-82
2023/05/24 02:04:39;;;;;;;17.67;5.57;;;;;;;;;;4975728;28;20260;-83
2023/05/24 02:07:05;;;;;;;10.47;5.87;;;;;;;;;;4976120;28;20214;-81
2023/05/24 02:09:31;;;;;;;16.93;5.37;;;;;;;;;;5003804;28;20223;-82
2023/05/24 02:11:59;;;;;;;14.03;5.17;;;;;;;;;;5009758;28;20236;-82
2023/05/24 02:14:28;;;;;;;13.87;5.70;;;;;;;;;;5000228;28;20245;-82
2023/05/24 02:16:57;;;;;;;11.77;5.57;;;;;;;;;;4993237;28;20269;-81
2023/05/24 02:19:25;;;;;;;15.67;5.97;;;;;;;;;;4992174;28;20233;-80
2023/05/24 02:21:51;;;;;;;19.03;5.80;;;;;;;;;;4999345;28;20221;-80
2023/05/24 02:24:17;;;;;;;16.40;5.63;;;;;;;;;;4972370;28;20257;-80
2023/05/24 02:26:43;;;;;;;16.97;5.83;;;;;;;;;;4980207;28;20636;-83
2023/05/24 02:29:09;;;;;;;16.80;5.07;;;;;;;;;;4987537;28;20237;-83
2023/05/24 02:31:35;;;;;;;14.63;5.40;;;;;;;;;;4954462;28;20221;-85
2023/05/24 02:34:06;;;;;;;16.90;5.63;;;;;;;;;;4977596;28;20217;-83
2023/05/24 02:36:35;;;;;;;16.70;6.00;;;;;;;;;;4938795;28;20221;-82
2023/05/24 02:39:01;;;;;;;22.27;5.93;;;;;;;;;;4977017;28;20222;-84
2023/05/24 02:41:28;;;;;;;18.53;5.93;;;;;;;;;;4973804;28;20261;-83
2023/05/24 02:43:54;;;;;;;14.20;6.37;;;;;;;;;;4973948;28;20217;-81
2023/05/24 02:46:19;;;;;;;16.80;6.53;;;;;;;;;;4935770;28;20232;-84
2023/05/24 02:48:48;;;;;;;18.50;6.47;;;;;;;;;;4970851;28;20224;-83
2023/05/24 02:51:14;;;;;;;18.13;5.63;;;;;;;;;;4958542;28;20252;-81
2023/05/24 02:53:42;;;;;;;15.83;5.83;;;;;;;;;;4959646;28;20221;-82
2023/05/24 02:56:08;;;;;;;17.20;5.87;;;;;;;;;;4965869;28;20222;-82
2023/05/24 02:58:39;;;;;;;17.33;6.00;;;;;;;;;;4984833;28;20745;-82
2023/05/24 03:01:09;;;;;;;16.20;5.90;;;;;;;;;;4959007;28;20217;-82
2023/05/24 03:03:35;;;;;;;13.90;6.33;;;;;;;;;;4965547;28;20234;-81
2023/05/24 03:06:01;;;;;;;16.07;5.80;;;;;;;;;;4951264;28;20225;-82
2023/05/24 03:08:31;;;;;;;11.83;6.23;;;;;;;;;;4939557;28;20221;-83
2023/05/24 03:10:57;;;;;;;13.90;6.77;;;;;;;;;;4964753;28;20219;-81
2023/05/24 03:13:24;;;;;;;14.70;7.20;;;;;;;;;;4980003;28;20288;-81
2023/05/24 03:15:50;;;;;;;17.60;7.00;;;;;;;;;;4974613;28;20646;-82
2023/05/24 03:18:18;;;;;;;15.77;6.23;;;;;;;;;;4956988;28;20222;-82
2023/05/24 03:20:45;;;;;;;22.03;7.10;;;;;;;;;;4972319;28;20214;-83
2023/05/24 03:23:13;;;;;;;16.63;6.63;;;;;;;;;;4963511;28;20248;-83
2023/05/24 03:25:39;;;;;;;15.10;5.93;;;;;;;;;;4986114;28;20217;-83
2023/05/24 03:28:05;;;;;;;20.13;7.00;;;;;;;;;;4974131;28;20217;-84
2023/05/24 03:30:33;;;;;;;19.93;6.67;;;;;;;;;;4954442;28;20304;-82
2023/05/24 03:33:01;;;;;;;21.00;6.80;;;;;;;;;;4986660;28;20590;-83
2023/05/24 03:35:27;;;;;;;14.47;6.27;;;;;;;;;;4986325;28;20226;-82
2023/05/24 03:37:52;;;;;;;15.97;6.97;;;;;;;;;;4977652;28;20710;-80
2023/05/24 03:40:20;;;;;;;16.23;7.03;;;;;;;;;;4981194;28;20244;-80
2023/05/24 03:43:00;;;;;;;12.20;6.57;;;;;;;;;;4980734;28;20221;-79
2023/05/24 03:45:45;;;;;;;18.70;6.90;;;;;;;;;;4963548;28;20226;-80
2023/05/24 03:48:10;;;;;;;19.33;7.20;;;;;;;;;;4989643;28;20673;-79
2023/05/24 03:50:36;;;;;;;17.53;6.53;;;;;;;;;;4975830;28;20230;-81
2023/05/24 03:53:04;;;;;;;21.07;7.07;;;;;;;;;;4948681;28;20762;-80
2023/05/24 03:55:29;;;;;;;19.70;6.70;;;;;;;;;;4979212;28;20268;-80
2023/05/24 03:57:59;;;;;;;17.20;6.70;;;;;;;;;;4968920;28;20226;-82
2023/05/24 04:00:25;;;;;;;13.80;5.90;;;;;;;;;;4969093;28;20726;-79
2023/05/24 04:02:51;;;;;;;16.83;6.73;;;;;;;;;;4993669;28;20360;-81
2023/05/24 04:05:17;;;;;;;17.93;6.60;;;;;;;;;;4987374;28;20599;-80
2023/05/24 04:07:45;;;;;;;16.97;6.43;;;;;;;;;;4966204;28;20224;-81
2023/05/24 04:10:11;;;;;;;17.93;6.83;;;;;;;;;;4949818;28;20238;-79
2023/05/24 04:12:38;;;;;;;17.77;7.93;;;;;;;;;;4993795;28;20277;-80
2023/05/24 04:15:08;;;;;;;14.10;6.10;;;;;;;;;;4971648;28;20900;-79
2023/05/24 04:17:34;;;;;;;16.57;6.60;;;;;;;;;;4971329;28;20253;-80
2023/05/24 04:20:00;;;;;;;20.73;6.30;;;;;;;;;;4977761;28;20585;-82
2023/05/24 04:22:26;;;;;;;17.57;6.43;;;;;;;;;;4977838;28;20328;-80
2023/05/24 04:24:51;;;;;;;18.77;7.10;;;;;;;;;;4974308;28;20704;-81
2023/05/24 04:27:20;;;;;;;22.00;6.67;;;;;;;;;;4957460;28;20300;-79
2023/05/24 04:29:48;;;;;;;18.13;6.30;;;;;;;;;;5006501;28;20329;-82
2023/05/24 04:32:16;;;;;;;17.73;6.90;;;;;;;;;;4971601;28;20230;-83
2023/05/24 04:34:44;;;;;;;14.50;6.13;;;;;;;;;;4953730;28;20234;-82
2023/05/24 04:37:12;;;;;;;15.83;6.30;;;;;;;;;;4994029;28;20229;-80
2023/05/24 04:39:43;;;;;;;12.67;6.17;;;;;;;;;;4979281;28;20229;-80
2023/05/24 04:42:08;;;;;;;16.63;6.70;;;;;;;;;;4946433;28;20269;-79
2023/05/24 04:44:36;;;;;;;15.73;6.33;;;;;;;;;;4957830;28;20243;-80
2023/05/24 04:47:05;;;;;;;16.70;6.13;;;;;;;;;;4971898;28;20214;-81
2023/05/24 04:49:36;;;;;;;11.43;5.97;;;;;;;;;;4985651;28;20797;-79
2023/05/24 04:52:05;;;;;;;15.63;6.00;;;;;;;;;;4982044;28;20233;-80
2023/05/24 04:54:30;;;;;;;14.47;6.10;;;;;;;;;;4961510;28;20234;-82
2023/05/24 04:56:58;;;;;;;16.87;6.37;;;;;;;;;;4963487;28;20312;-82
2023/05/24 04:59:24;;;;;;;12.73;5.97;;;;;;;;;;4965073;28;20217;-81
2023/05/24 05:02:11;;;;;;;14.53;6.17;;;;;;;;;;4999064;28;20570;-81
2023/05/24 05:04:39;;;;;;;16.00;5.80;;;;;;;;;;4979699;28;20232;-80
2023/05/24 05:07:04;;;;;;;14.70;5.97;;;;;;;;;;4964041;28;20213;-81
2023/05/24 05:09:30;;;;;;;11.93;6.00;;;;;;;;;;4972407;28;20889;-80
2023/05/24 05:12:00;;;;;;;12.77;6.07;;;;;;;;;;4980590;28;20294;-82
2023/05/24 05:14:26;;;;;;;14.93;5.93;;;;;;;;;;4949432;28;20256;-79
2023/05/24 05:16:53;;;;;;;19.53;6.20;;;;;;;;;;4981548;28;20225;-81
2023/05/24 05:19:19;;;;;;;15.63;5.97;;;;;;;;;;4989741;28;20291;-80
2023/05/24 05:21:45;;;;;;;14.20;5.83;;;;;;;;;;4987706;28;20221;-79
2023/05/24 05:24:16;;;;;;;12.70;6.00;;;;;;;;;;4960643;28;20310;-80
2023/05/24 05:26:45;;;;;;;14.83;5.67;;;;;;;;;;4986650;28;20249;-81
2023/05/24 05:29:11;;;;;;;16.30;5.97;;;;;;;;;;4948788;28;20229;-79
2023/05/24 05:32:07;;;;;;;11.77;5.87;;;;;;;;;;4969778;28;20244;-79
2023/05/24 05:34:35;;;;;;;14.20;5.47;;;;;;;;;;4992975;28;20948;-79
2023/05/24 05:37:04;;;;;;;18.17;6.13;;;;;;;;;;4961387;28;20234;-80
2023/05/24 05:39:30;;;;;;;11.97;5.50;;;;;;;;;;4968985;28;20245;-79
2023/05/24 05:41:56;;;;;;;14.50;5.17;;;;;;;;;;4973641;28;20214;-81
2023/05/24 05:44:22;;;;;;;13.80;6.13;;;;;;;;;;4992018;28;20784;-78
2023/05/24 05:46:47;;;;;;;16.83;5.43;;;;;;;;;;4970880;28;20223;-79
2023/05/24 05:49:14;;;;;;;14.63;5.00;;;;;;;;;;4977820;28;20237;-81
2023/05/24 05:51:40;;;;;;;11.43;5.23;;;;;;;;;;4945177;28;20241;-81
2023/05/24 05:54:13;;;;;;;17.30;5.93;;;;;;;;;;5001903;28;20218;-81
2023/05/24 05:56:44;;;;;;;13.90;5.77;;;;;;;;;;4945126;28;20222;-82
2023/05/24 05:59:15;;;;;;;10.77;4.90;;;;;;;;;;4973348;28;20214;-81
2023/05/24 06:02:05;;;;;;;15.00;5.63;;;;;;;;;;4960318;28;20214;-81
2023/05/24 06:04:33;;;;;;;12.17;5.50;;;;;;;;;;4979510;28;20233;-81
2023/05/24 06:07:01;;;;;;;16.33;5.60;;;;;;;;;;4965622;28;20205;-80
2023/05/24 06:09:26;;;;;;;13.07;6.00;;;;;;;;;;4973712;28;20236;-79
2023/05/24 06:11:54;;;;;;;11.80;5.60;;;;;;;;;;4989997;28;20226;-80
2023/05/24 06:14:23;;;;;;;14.67;5.80;;;;;;;;;;4957293;28;20226;-78
2023/05/24 06:16:51;;;;;;;13.83;5.97;;;;;;;;;;4989844;28;20223;-79
2023/05/24 06:19:19;;;;;;;12.27;5.53;;;;;;;;;;4956338;28;20226;-81
2023/05/24 06:21:46;;;;;;;13.10;5.77;;;;;;;;;;4993915;28;20984;-81
2023/05/24 06:24:19;;;;;;;15.53;5.70;;;;;;;;;;4976426;28;20237;-81
2023/05/24 06:26:50;;;;;;;11.40;6.37;;;;;;;;;;4978393;28;20242;-80
2023/05/24 06:29:18;;;;;;;14.97;6.27;;;;;;;;;;4977379;28;20613;-80
2023/05/24 06:31:46;;;;;;;14.20;6.53;;;;;;;;;;4960904;28;20222;-82
2023/05/24 06:34:19;;;;;;;14.90;6.17;;;;;;;;;;4956691;28;20238;-82
2023/05/24 06:36:50;;;;;;;17.80;6.70;;;;;;;;;;4976125;28;20241;-82
2023/05/24 06:39:16;;;;;;;16.70;6.90;;;;;;;;;;4952956;28;20727;-81
2023/05/24 06:41:44;;;;;;;17.67;7.20;;;;;;;;;;4964577;28;20229;-82
2023/05/24 06:44:10;;;;;;;17.57;6.67;;;;;;;;;;4985648;28;20222;-82
2023/05/24 06:46:41;;;;;;;16.53;6.87;;;;;;;;;;4961787;28;20232;-82
2023/05/24 06:49:07;;;;;;;13.03;6.30;;;;;;;;;;4952988;28;20222;-81
2023/05/24 06:51:35;;;;;;;11.10;5.87;;;;;;;;;;4976830;28;20229;-81
2023/05/24 06:54:01;;;;;;;17.97;6.63;;;;;;;;;;4955860;28;20296;-81
2023/05/24 06:56:29;;;;;;;12.60;6.73;;;;;;;;;;4939948;28;20225;-81
2023/05/24 06:58:57;;;;;;;16.80;6.37;;;;;;;;;;4976520;28;20828;-81
2023/05/24 07:01:26;;;;;;;12.60;6.63;;;;;;;;;;4992144;28;20217;-82
2023/05/24 07:03:52;;;;;;;12.67;6.63;;;;;;;;;;4975221;28;20226;-81
2023/05/24 07:06:25;;;;;;;17.10;6.87;;;;;;;;;;4986067;28;20231;-81
2023/05/24 07:08:51;;;;;;;13.07;6.70;;;;;;;;;;4982343;28;20741;-82
2023/05/24 07:11:22;;;;;;;16.73;7.13;;;;;;;;;;4989616;28;20233;-80
2023/05/24 07:13:50;;;;;;;16.63;6.83;;;;;;;;;;4987101;28;20220;-80
2023/05/24 07:16:18;;;;;;;15.33;6.87;;;;;;;;;;5010730;28;20217;-79
2023/05/24 07:18:46;;;;;;;16.63;7.03;;;;;;;;;;4992698;28;20234;-77
2023/05/24 07:21:21;;;;;;;16.67;6.87;;;;;;;;;;4981402;28;20252;-79
2023/05/24 07:23:47;;;;;;;17.43;7.40;;;;;;;;;;4978532;28;20253;-82
2023/05/24 07:26:15;;;;;;;16.50;7.03;;;;;;;;;;4968449;28;20277;-82
2023/05/24 07:28:47;;;;;;;18.90;7.00;;;;;;;;;;4945453;28;20323;-82
2023/05/24 07:31:12;;;;;;;15.87;6.90;;;;;;;;;;4976975;28;20241;-82
2023/05/24 07:33:43;;;;;;;16.33;6.63;;;;;;;;;;4956381;28;20260;-82
2023/05/24 07:36:09;;;;;;;12.67;6.77;;;;;;;;;;4948875;28;20699;-82
2023/05/24 07:38:35;;;;;;;16.33;7.13;;;;;;;;;;4959159;28;20238;-79
2023/05/24 07:41:03;;;;;;;17.33;6.57;;;;;;;;;;4949112;28;20841;-79
2023/05/24 07:43:33;;;;;;;13.60;6.50;;;;;;;;;;4952781;28;20233;-81
2023/05/24 07:46:01;;;;;;;13.23;6.57;;;;;;;;;;4958589;28;20784;-82
2023/05/24 07:48:29;;;;;;;13.03;6.43;;;;;;;;;;4955830;28;20231;-82
2023/05/24 07:50:55;;;;;;;16.97;6.97;;;;;;;;;;4988892;28;20224;-81
2023/05/24 07:53:26;;;;;;;13.43;6.10;;;;;;;;;;4958694;28;20252;-80
2023/05/24 07:55:57;;;;;;;18.77;6.60;;;;;;;;;;4957810;28;20268;-81
2023/05/24 07:58:22;;;;;;;13.90;6.53;;;;;;;;;;4973358;28;20335;-80
2023/05/24 08:00:48;;;;;;;12.93;5.63;;;;;;;;;;4984872;28;20222;-82
2023/05/24 08:03:16;;;;;;;10.70;5.37;;;;;;;;;;4982391;28;20226;-80
2023/05/24 08:05:41;;;;;;;12.77;6.57;;;;;;;;;;4967181;28;20222;-81
2023/05/24 08:08:12;;;;;;;10.67;6.07;;;;;;;;;;4974902;28;20222;-84
2023/05/24 08:10:38;;;;;;;14.17;6.37;;;;;;;;;;4981402;28;20412;-82
2023/05/24 08:13:04;;;;;;;11.43;5.80;;;;;;;;;;4969726;28;20214;-82
2023/05/24 08:15:30;;;;;;;15.60;5.87;;;;;;;;;;4977009;28;20218;-84
2023/05/24 08:17:55;;;;;;;14.07;6.47;;;;;;;;;;4964635;28;20226;-83
2023/05/24 08:20:21;;;;;;;11.60;6.00;;;;;;;;;;4982668;28;20225;-83
2023/05/24 08:22:47;;;;;;;14.83;5.67;;;;;;;;;;4982109;28;20218;-85
2023/05/24 08:25:15;;;;;;;12.93;5.90;;;;;;;;;;4981993;28;20214;-82
2023/05/24 08:27:43;;;;;;;12.87;6.10;;;;;;;;;;4962380;28;20710;-84
2023/05/24 08:30:12;;;;;;;14.73;6.63;;;;;;;;;;5001442;28;20457;-82
2023/05/24 08:32:38;;;;;;;13.13;5.80;;;;;;;;;;4977720;28;20226;-82
2023/05/24 08:35:04;;;;;;;15.07;6.47;;;;;;;;;;4989080;28;20214;-83
2023/05/24 08:37:31;;;;;;;12.97;5.70;;;;;;;;;;4982754;28;20234;-83
2023/05/24 08:40:03;;;;;;;15.37;6.30;;;;;;;;;;4953103;28;20285;-83
2023/05/24 08:42:29;;;;;;;13.97;6.00;;;;;;;;;;4987780;28;20770;-85
2023/05/24 08:45:02;;;;;;;14.43;6.53;;;;;;;;;;4964175;28;20296;-81
2023/05/24 08:47:30;;;;;;;15.10;6.27;;;;;;;;;;4983292;28;20232;-85
2023/05/24 08:49:56;;;;;;;15.13;6.50;;;;;;;;;;4979698;28;20217;-83
2023/05/24 08:52:26;;;;;;;16.93;6.33;;;;;;;;;;4963126;28;20228;-85
2023/05/24 08:54:51;;;;;;;18.37;6.23;;;;;;;;;;4967459;28;20225;-83
2023/05/24 08:57:17;;;;;;;17.50;6.93;;;;;;;;;;4975624;28;20220;-83
2023/05/24 08:59:42;;;;;;;12.63;6.00;;;;;;;;;;4977231;28;20225;-82
2023/05/24 09:02:28;;;;;;;18.20;6.90;;;;;;;;;;4967533;28;20206;-82
2023/05/24 09:04:56;;;;;;;15.27;6.60;;;;;;;;;;4989629;28;20316;-83
2023/05/24 09:07:23;;;;;;;17.03;6.77;;;;;;;;;;4995283;28;20226;-81
2023/05/24 09:09:59;;;;;;;15.70;5.90;;;;;;;;;;4999749;28;20244;-82
2023/05/24 09:12:28;;;;;;;16.40;6.30;;;;;;;;;;4985384;28;20239;-83
2023/05/24 09:14:56;;;;;;;16.20;7.50;;;;;;;;;;4999292;28;20221;-83
2023/05/24 09:17:24;;;;;;;13.97;5.70;;;;;;;;;;4970076;28;20245;-84
2023/05/24 09:19:53;;;;;;;14.43;6.20;;;;;;;;;;4983186;28;20249;-83
2023/05/24 09:22:24;;;;;;;20.00;6.47;;;;;;;;;;4987706;28;20256;-83
2023/05/24 09:24:50;;;;;;;10.73;5.90;;;;;;;;;;5004114;28;20218;-83
2023/05/24 09:27:16;;;;;;;14.20;6.27;;;;;;;;;;4964658;28;20297;-80
2023/05/24 09:29:44;;;;;;;14.33;6.00;;;;;;;;;;5003160;28;20221;-82
2023/05/24 09:32:11;;;;;;;11.97;6.10;;;;;;;;;;4970579;28;20214;-82
2023/05/24 09:34:47;;;;;;;13.73;6.00;;;;;;;;;;4977671;23;20307;-79
2023/05/24 09:37:16;;;;;;;12.13;5.37;;;;;;;;;;4984197;28;20355;-76
2023/05/24 09:39:49;;;;;;;16.40;6.03;;;;;;;;;;4976205;28;20222;-75
2023/05/24 09:42:26;;;;;;;12.50;5.60;;;;;;;;;;4936224;28;20258;-75
2023/05/24 09:45:02;;;;;;;13.77;6.10;;;;;;;;;;4987507;28;20229;-75
2023/05/24 09:47:30;;;;;;;12.13;5.10;;;;;;;;;;4968057;28;20298;-75
2023/05/24 09:50:01;;;;;;;13.67;5.53;;;;;;;;;;4956575;28;20218;-77
2023/05/24 09:52:26;;;;;;;11.60;5.00;;;;;;;;;;4975600;28;20226;-76
2023/05/24 09:54:52;;;;;;;10.73;5.10;;;;;;;;;;4929483;28;20726;-76
2023/05/24 09:57:21;;;;;;;8.73;4.90;;;;;;;;;;4936323;28;21680;-76
2023/05/24 09:59:52;;;;;;;12.90;4.60;;;;;;;;;;4951579;28;20226;-77
2023/05/24 10:02:20;;;;;;;10.70;5.07;;;;;;;;;;4952644;28;20226;-77
2023/05/24 10:04:51;;;;;;;10.97;4.73;;;;;;;;;;4991017;28;20285;-77
2023/05/24 10:07:17;;;;;;;10.37;5.50;;;;;;;;;;4969678;28;20727;-77
2023/05/24 10:09:48;;;;;;;11.70;5.17;;;;;;;;;;4965158;28;20232;-76
2023/05/24 10:12:16;;;;;;;9.03;4.47;;;;;;;;;;4976063;28;20230;-75
2023/05/24 10:14:41;;;;;;;13.33;5.27;;;;;;;;;;4959465;28;20519;-76
2023/05/24 10:17:09;;;;;;;12.73;4.68;;;;;;;;;;4958830;28;20669;-77
2023/05/24 10:19:35;;;;;;;8.30;4.30;;;;;;;;;;4975957;28;20250;-76
2023/05/24 10:22:03;;;;;;;11.70;5.03;;;;;;;;;;4977735;28;20226;-76
2023/05/24 10:24:32;;;;;;;8.23;4.43;;;;;;;;;;4983750;28;20238;-76
2023/05/24 10:26:59;;;;;;;8.75;4.53;;;;;;;;;;4957598;28;20297;-76
2023/05/24 10:29:45;;;;;;;8.30;4.57;;;;;;;;;;4949677;28;20222;-75
2023/05/24 10:32:14;;;;;;;9.63;4.60;;;;;;;;;;4951552;28;20223;-77
2023/05/24 10:34:44;;;;;;;10.20;4.65;;;;;;;;;;4962190;28;20233;-77
2023/05/24 10:37:10;;;;;;;10.88;4.53;;;;;;;;;;4962009;28;20242;-77
2023/05/24 10:39:38;;;;;;;9.82;5.00;;;;;;;;;;4945688;28;20218;-77
2023/05/24 10:42:09;;;;;;;10.00;4.93;;;;;;;;;;4959966;28;20219;-77
2023/05/24 10:44:40;;;;;;;11.07;4.53;;;;;;;;;;4962831;28;20715;-76
2023/05/24 10:47:11;;;;;;;8.13;4.45;;;;;;;;;;4966379;28;20259;-77
2023/05/24 10:49:51;;;;;;;10.00;4.75;;;;;;;;;;4951424;28;20312;-76
2023/05/24 10:52:17;;;;;;;8.63;4.63;;;;;;;;;;4976403;28;20705;-76
2023/05/24 10:55:04;;;;;;;9.32;4.47;;;;;;;;;;4960517;28;20218;-76
2023/05/24 10:57:31;;;;;;;10.10;5.20;;;;;;;;;;4945062;28;20248;-75
2023/05/24 11:00:18;;;;;;;9.83;4.90;;;;;;;;;;4957792;28;20318;-75
2023/05/24 11:03:05;;;;;;;12.07;5.40;;;;;;;;;;4987993;28;20224;-77
2023/05/24 11:05:48;;;;;;;8.10;5.20;;;;;;;;;;4979411;28;20233;-76
2023/05/24 11:08:14;;;;;;;10.60;5.50;;;;;;;;;;4966568;28;20256;-77
2023/05/24 11:10:45;;;;;;;12.38;5.22;;;;;;;;;;4960129;28;20684;-75
2023/05/24 11:13:16;;;;;;;12.20;4.90;;;;;;;;;;4988828;28;20240;-76
2023/05/24 11:15:50;;;;;;;11.63;5.07;;;;;;;;;;4934179;28;20222;-77
2023/05/24 11:18:20;;;;;;;10.05;5.18;;;;;;;;;;4959964;28;20234;-76
2023/05/24 11:20:48;;;;;;;9.27;4.70;;;;;;;;;;4970703;28;20225;-77
2023/05/24 11:23:14;;;;;;;10.57;4.88;;;;;;;;;;4965479;28;20281;-75
2023/05/24 11:25:42;;;;;;;9.18;4.43;;;;;;;;;;4973612;28;20314;-75
2023/05/24 11:28:09;;;;;;;7.60;4.35;;;;;;;;;;4932789;28;20218;-76
2023/05/24 11:30:45;;;;;;;6.80;4.05;;;;;;;;;;4956011;28;20238;-75
2023/05/24 11:33:17;;;;;;;7.95;4.10;;;;;;;;;;4964787;28;20627;-75
2023/05/24 11:35:43;;;;;;;10.05;4.05;;;;;;;;;;4967290;28;20218;-76
2023/05/24 11:38:12;;;;;;;7.75;3.72;;;;;;;;;;4974129;28;20298;-76
2023/05/24 11:40:45;;;;;;;8.25;3.95;;;;;;;;;;4965053;28;20305;-77
2023/05/24 11:43:16;;;;;;;6.00;3.40;;;;;;;;;;4974567;28;20245;-76
2023/05/24 11:45:45;;;;;;;7.10;3.03;;;;;;;;;;4971672;28;20222;-76
2023/05/24 11:48:13;;;;;;;10.25;3.53;;;;;;;;;;4960969;28;20222;-76
2023/05/24 11:50:43;;;;;;;12.18;3.60;;;;;;;;;;4969236;28;20222;-76
2023/05/24 11:53:12;;;;;;;6.45;3.88;;;;;;;;;;4981762;28;20211;-76
2023/05/24 11:55:41;;;;;;;8.02;3.63;;;;;;;;;;4969214;28;20644;-76
2023/05/24 11:58:15;;;;;;;8.32;3.50;;;;;;;;;;4943977;28;20230;-76
2023/05/24 12:00:46;;;;;;;6.10;3.80;;;;;;;;;;4994254;28;20222;-75
2023/05/24 12:03:11;;;;;;;6.97;3.58;;;;;;;;;;4964221;28;20227;-76
2023/05/24 12:05:39;;;;;;;6.85;3.97;;;;;;;;;;4953432;28;20275;-76
2023/05/24 12:08:08;;;;;;;8.13;3.70;;;;;;;;;;4969582;28;20294;-79
2023/05/24 12:10:42;;;;;;;7.32;4.30;;;;;;;;;;4980341;28;20651;-77
2023/05/24 12:13:22;;;;;;;5.60;3.53;;;;;;;;;;4994750;28;20300;-75
2023/05/24 12:15:53;;;;;;;7.95;4.10;;;;;;;;;;4955986;28;20676;-76
2023/05/24 12:18:22;;;;;;;7.40;3.83;;;;;;;;;;4976562;28;20235;-76
2023/05/24 12:20:50;;;;;;;11.25;4.07;;;;;;;;;;4952618;28;20852;-77
2023/05/24 12:23:18;;;;;;;8.68;3.90;;;;;;;;;;4993592;28;20226;-76
2023/05/24 12:25:46;;;;;;;7.18;3.95;;;;;;;;;;4978760;28;20227;-76
2023/05/24 12:28:14;;;;;;;6.88;4.03;;;;;;;;;;4950589;28;20225;-76
2023/05/24 12:30:42;;;;;;;8.35;3.90;;;;;;;;;;4962607;28;20373;-75
2023/05/24 12:33:12;;;;;;;8.65;3.88;;;;;;;;;;4964715;28;20232;-74
2023/05/24 12:35:43;;;;;;;7.60;4.10;;;;;;;;;;4968691;28;20230;-76
2023/05/24 12:38:09;;;;;;;10.18;4.80;;;;;;;;;;4962890;28;20356;-75
2023/05/24 12:40:35;;;;;;;9.73;4.85;;;;;;;;;;4976568;28;20272;-76
2023/05/24 12:43:03;;;;;;;9.25;4.47;;;;;;;;;;4984501;28;20219;-76
2023/05/24 12:45:31;;;;;;;11.02;4.72;;;;;;;;;;4978226;28;20703;-76
2023/05/24 12:47:58;;;;;;;10.02;4.47;;;;;;;;;;4963615;28;20309;-76
2023/05/24 12:50:26;;;;;;;10.23;4.53;;;;;;;;;;4951334;28;20249;-75
2023/05/24 12:52:54;;;;;;;10.77;4.53;;;;;;;;;;4963481;28;20233;-76
2023/05/24 12:55:22;;;;;;;11.50;4.75;;;;;;;;;;4974106;28;20226;-76
2023/05/24 12:57:54;;;;;;;11.20;4.32;;;;;;;;;;4978005;28;20241;-76
2023/05/24 13:00:26;;;;;;;11.35;4.57;;;;;;;;;;4939836;28;20249;-75
2023/05/24 13:02:57;;;;;;;12.27;4.25;;;;;;;;;;4984920;28;20240;-74
2023/05/24 13:05:23;;;;;;;10.73;4.97;;;;;;;;;;4961000;28;20233;-75
2023/05/24 13:07:53;;;;;;;8.10;4.55;;;;;;;;;;4951950;28;20291;-76
2023/05/24 13:10:19;;;;;;;8.98;5.50;;;;;;;;;;4991732;28;20365;-74
2023/05/24 13:12:47;;;;;;;8.35;4.55;;;;;;;;;;4991115;28;20214;-75
2023/05/24 13:15:15;;;;;;;9.55;4.78;;;;;;;;;;4965354;28;20224;-76
2023/05/24 13:17:43;;;;;;;10.20;4.80;;;;;;;;;;4967970;28;20214;-74
2023/05/24 13:20:11;;;;;;;11.55;4.95;;;;;;;;;;4962448;28;20281;-75
2023/05/24 13:22:41;;;;;;;10.95;4.85;;;;;;;;;;4968293;28;20227;-75
2023/05/24 13:25:09;;;;;;;9.80;4.43;;;;;;;;;;4981462;28;20281;-76
2023/05/24 13:27:34;;;;;;;7.85;3.80;;;;;;;;;;4974302;28;20246;-75
2023/05/24 13:30:00;;;;;;;6.53;3.88;;;;;;;;;;4978564;28;20215;-75
2023/05/24 13:32:30;;;;;;;8.77;4.38;;;;;;;;;;4989529;28;20318;-75
2023/05/24 13:34:56;;;;;;;9.25;4.63;;;;;;;;;;4967854;28;20265;-75
2023/05/24 13:37:22;;;;;;;8.10;4.90;;;;;;;;;;4951822;28;20708;-76
2023/05/24 13:39:50;;;;;;;9.07;4.72;;;;;;;;;;4978708;28;20248;-75
2023/05/24 13:42:18;;;;;;;8.60;4.50;;;;;;;;;;4963548;28;20610;-75
2023/05/24 13:44:46;;;;;;;9.80;4.22;;;;;;;;;;4990860;28;20226;-75
2023/05/24 13:47:18;;;;;;;8.80;3.90;;;;;;;;;;4958907;28;20230;-75
2023/05/24 13:49:44;;;;;;;6.13;3.47;;;;;;;;;;4965144;28;20297;-75
2023/05/24 13:52:09;;;;;;;7.47;3.97;;;;;;;;;;4960590;28;20298;-75
2023/05/24 13:54:35;;;;;;;5.93;3.70;;;;;;;;;;4976684;28;21108;-75
2023/05/24 13:57:05;;;;;;;9.27;4.03;;;;;;;;;;4973872;28;20231;-75
2023/05/24 13:59:31;;;;;;;7.18;4.03;;;;;;;;;;4976275;28;20699;-73
2023/05/24 14:01:56;;;;;;;7.70;3.40;;;;;;;;;;4973746;28;20225;-75
2023/05/24 14:04:29;;;;;;;7.45;3.90;;;;;;;;;;4959210;28;20293;-75
2023/05/24 14:06:54;;;;;;;6.22;3.90;;;;;;;;;;4953340;28;20681;-75
2023/05/24 14:09:22;;;;;;;7.88;4.20;;;;;;;;;;4977446;28;20223;-75
2023/05/24 14:11:54;;;;;;;7.90;4.03;;;;;;;;;;4965425;28;20211;-76
2023/05/24 14:14:22;;;;;;;8.93;4.68;;;;;;;;;;4933601;28;20358;-74
2023/05/24 14:16:53;;;;;;;7.53;3.67;;;;;;;;;;4985250;28;20743;-75
2023/05/24 14:19:19;;;;;;;9.93;4.45;;;;;;;;;;4961346;28;20237;-74
2023/05/24 14:21:45;;;;;;;7.43;4.30;;;;;;;;;;4935597;28;20230;-73
2023/05/24 14:24:10;;;;;;;12.05;4.93;;;;;;;;;;4957571;28;20218;-75
2023/05/24 14:26:40;;;;;;;12.30;4.75;;;;;;;;;;4973890;28;20214;-75
2023/05/24 14:29:09;;;;;;;11.98;4.80;;;;;;;;;;4945060;28;20214;-76
2023/05/24 14:31:40;;;;;;;11.18;5.07;;;;;;;;;;4992251;28;20237;-75
2023/05/24 14:34:09;;;;;;;8.65;4.75;;;;;;;;;;4945433;28;20242;-75
2023/05/24 14:36:37;;;;;;;12.55;5.45;;;;;;;;;;4960354;28;20241;-75
2023/05/24 14:39:05;;;;;;;11.13;5.18;;;;;;;;;;4965864;28;20234;-76
2023/05/24 14:41:33;;;;;;;11.95;5.15;;;;;;;;;;4957504;28;20256;-75
2023/05/24 14:44:02;;;;;;;9.38;4.93;;;;;;;;;;4977128;28;20774;-76
2023/05/24 14:46:32;;;;;;;12.93;5.30;;;;;;;;;;4948447;28;20226;-76
2023/05/24 14:48:58;;;;;;;13.13;5.25;;;;;;;;;;4979756;28;20222;-77
2023/05/24 14:51:25;;;;;;;13.10;5.93;;;;;;;;;;4989513;28;20802;-76
2023/05/24 14:53:51;;;;;;;11.18;5.25;;;;;;;;;;4976462;28;20253;-77
2023/05/24 14:56:16;;;;;;;11.73;5.28;;;;;;;;;;4981915;28;20230;-74
2023/05/24 14:58:47;;;;;;;9.88;5.22;;;;;;;;;;4966305;28;20599;-77
2023/05/24 15:01:16;;;;;;;11.52;4.93;;;;;;;;;;4977981;28;20254;-77
2023/05/24 15:03:46;;;;;;;12.02;5.72;;;;;;;;;;4949344;28;20244;-76
2023/05/24 15:06:13;;;;;;;7.53;4.90;;;;;;;;;;4950357;28;20277;-76
2023/05/24 15:08:41;;;;;;;11.68;5.35;;;;;;;;;;4981786;28;20214;-75
2023/05/24 15:11:10;;;;;;;10.77;5.45;;;;;;;;;;4962670;28;20306;-76
2023/05/24 15:13:37;;;;;;;12.32;5.38;;;;;;;;;;4960687;28;20711;-75
2023/05/24 15:16:05;;;;;;;10.05;4.97;;;;;;;;;;4950174;28;20233;-76
2023/05/24 15:18:30;;;;;;;10.75;5.50;;;;;;;;;;4959912;28;20222;-76
2023/05/24 15:20:56;;;;;;;13.35;5.65;;;;;;;;;;4959574;28;20597;-74
2023/05/24 15:23:22;;;;;;;10.63;5.53;;;;;;;;;;4983477;28;20286;-74
2023/05/24 15:25:48;;;;;;;9.82;5.20;;;;;;;;;;4967215;28;20241;-74
2023/05/24 15:28:15;;;;;;;11.20;5.68;;;;;;;;;;4963875;28;20232;-74
2023/05/24 15:30:43;;;;;;;9.27;5.30;;;;;;;;;;4963133;28;20348;-73
2023/05/24 15:33:09;;;;;;;10.75;5.60;;;;;;;;;;4963836;28;20261;-73
2023/05/24 15:35:40;;;;;;;10.10;5.03;;;;;;;;;;4984396;28;20214;-76
2023/05/24 15:38:05;;;;;;;10.15;5.10;;;;;;;;;;4999530;28;21219;-77
2023/05/24 15:40:31;;;;;;;10.45;5.75;;;;;;;;;;4995698;28;20234;-76
2023/05/24 15:42:56;;;;;;;12.55;5.97;;;;;;;;;;4970060;28;20222;-79
2023/05/24 15:45:24;;;;;;;8.48;4.70;;;;;;;;;;4962548;28;20218;-75
2023/05/24 15:47:52;;;;;;;11.80;5.22;;;;;;;;;;4938072;28;20218;-75
2023/05/24 15:50:18;;;;;;;9.48;5.22;;;;;;;;;;4980473;28;20223;-76
2023/05/24 15:52:44;;;;;;;8.73;4.88;;;;;;;;;;4979281;28;20292;-75
2023/05/24 15:55:11;;;;;;;10.45;4.72;;;;;;;;;;4961928;28;20222;-75
2023/05/24 15:57:39;;;;;;;10.40;4.80;;;;;;;;;;4962822;28;20616;-76
2023/05/24 16:00:11;;;;;;;11.63;4.97;;;;;;;;;;4953099;28;20264;-76
2023/05/24 16:02:39;;;;;;;8.15;4.60;;;;;;;;;;4980339;28;20226;-75
2023/05/24 16:05:05;;;;;;;8.68;4.88;;;;;;;;;;4933424;28;20730;-76
2023/05/24 16:07:33;;;;;;;8.50;4.80;;;;;;;;;;4978252;28;20230;-76
2023/05/24 16:10:01;;;;;;;9.65;4.75;;;;;;;;;;4964811;28;20677;-76
2023/05/24 16:12:27;;;;;;;9.18;5.20;;;;;;;;;;4977810;28;20222;-75